createdAt,value
2018-04-06T00:00:00.919Z,1015.21
2018-04-06T00:01:10.882Z,1015.12
2018-04-06T00:02:20.326Z,1015.21
2018-04-06T00:03:30.052Z,1015.23
2018-04-06T00:04:39.277Z,1015.14
2018-04-06T00:05:49.017Z,1015.21
2018-04-06T00:06:58.987Z,1015.16
2018-04-06T00:08:08.688Z,1015.13
2018-04-06T00:09:18.134Z,1015.23
2018-04-06T00:10:27.838Z,1015.33
2018-04-06T00:11:37.299Z,1015.42
2018-04-06T00:12:47.257Z,1015.44
2018-04-06T00:13:56.702Z,1015.41
2018-04-06T00:15:06.401Z,1015.51
2018-04-06T00:16:15.586Z,1015.48
2018-04-06T00:17:25.532Z,1015.53
2018-04-06T00:18:35.234Z,1015.56
2018-04-06T00:19:44.668Z,1015.67
2018-04-06T00:20:54.371Z,1015.48
2018-04-06T00:22:04.089Z,1015.6
2018-04-06T00:23:14.049Z,1015.64
2018-04-06T00:24:24.013Z,1015.67
2018-04-06T00:25:33.991Z,1015.78
2018-04-06T00:26:43.939Z,1015.75
2018-04-06T00:27:53.917Z,1015.68
2018-04-06T00:29:03.622Z,1015.81
2018-04-06T00:30:13.641Z,1015.71
2018-04-06T00:31:23.590Z,1015.84
2018-04-06T00:32:33.557Z,1016.01
2018-04-06T00:33:43.509Z,1015.9
2018-04-06T00:34:53.218Z,1015.88
2018-04-06T00:36:02.918Z,1015.93
2018-04-06T00:37:12.360Z,1016.08
2018-04-06T00:38:22.206Z,1015.96
2018-04-06T00:39:31.660Z,1015.97
2018-04-06T00:40:41.361Z,1016.02
2018-04-06T00:41:50.807Z,1015.96
2018-04-06T00:43:00.556Z,1015.98
2018-04-06T00:44:10.536Z,1016.05
2018-04-06T00:45:20.513Z,1016.17
2018-04-06T00:46:30.466Z,1016.14
2018-04-06T00:47:40.415Z,1016.08
2018-04-06T00:48:50.376Z,1016.13
2018-04-06T00:50:00.335Z,1016.02
2018-04-06T00:51:10.031Z,1016.06
2018-04-06T00:52:20.089Z,1016.24
2018-04-06T00:53:30.060Z,1016.23
2018-04-06T00:54:40.022Z,1016.11
2018-04-06T00:55:49.975Z,1016.23
2018-04-06T00:56:59.937Z,1016.14
2018-04-06T00:58:09.892Z,1016.11
2018-04-06T00:59:19.842Z,1016.29
2018-04-06T01:00:29.799Z,1016.14
2018-04-06T01:01:39.248Z,1016.22
2018-04-06T01:02:49.213Z,1016.26
2018-04-06T01:03:59.176Z,1016.13
2018-04-06T01:05:08.630Z,1016.19
2018-04-06T01:06:18.335Z,1016.29
2018-04-06T01:07:28.296Z,1016.24
2018-04-06T01:08:38.262Z,1016.22
2018-04-06T01:09:47.979Z,1016.17
2018-04-06T01:10:57.668Z,1016.08
2018-04-06T01:12:07.629Z,1016.18
2018-04-06T01:13:17.589Z,1016.14
2018-04-06T01:14:27.548Z,1016.24
2018-04-06T01:15:37.255Z,1016.25
2018-04-06T01:16:46.959Z,1016.28
2018-04-06T01:17:56.911Z,1016.35
2018-04-06T01:19:06.864Z,1016.28
2018-04-06T01:20:16.831Z,1016.29
2018-04-06T01:21:26.801Z,1016.39
2018-04-06T01:22:36.750Z,1016.43
2018-04-06T01:23:46.706Z,1016.38
2018-04-06T01:24:56.718Z,1016.46
2018-04-06T01:26:06.419Z,1016.4
2018-04-06T01:27:15.846Z,1016.42
2018-04-06T01:28:25.300Z,1016.44
2018-04-06T01:29:34.996Z,1016.36
2018-04-06T01:30:45.012Z,1016.38
2018-04-06T01:31:54.974Z,1016.38
2018-04-06T01:33:04.939Z,1016.45
2018-04-06T01:34:14.894Z,1016.35
2018-04-06T01:35:24.845Z,1016.33
2018-04-06T01:36:34.551Z,1016.31
2018-04-06T01:37:44.528Z,1016.32
2018-04-06T01:38:54.480Z,1016.36
2018-04-06T01:40:04.432Z,1016.4
2018-04-06T01:41:14.398Z,1016.5
2018-04-06T01:42:24.092Z,1016.5
2018-04-06T01:43:34.045Z,1016.47
2018-04-06T01:44:44.004Z,1016.45
2018-04-06T01:45:53.440Z,1016.53
2018-04-06T01:47:03.420Z,1016.53
2018-04-06T01:48:13.136Z,1016.62
2018-04-06T01:49:23.102Z,1016.5
2018-04-06T01:50:32.806Z,1016.57
2018-04-06T01:51:42.242Z,1016.59
2018-04-06T01:52:51.938Z,1016.56
2018-04-06T01:54:01.795Z,1016.58
2018-04-06T01:55:11.748Z,1016.6
2018-04-06T01:56:21.710Z,1016.57
2018-04-06T01:57:31.667Z,1016.56
2018-04-06T01:58:41.108Z,1016.64
2018-04-06T01:59:50.809Z,1016.7
2018-04-06T02:01:00.990Z,1016.74
2018-04-06T02:02:10.690Z,1016.65
2018-04-06T02:03:20.642Z,1016.8
2018-04-06T02:04:30.586Z,1016.7
2018-04-06T02:05:40.536Z,1016.76
2018-04-06T02:06:50.488Z,1016.72
2018-04-06T02:08:00.442Z,1016.85
2018-04-06T02:09:10.398Z,1016.84
2018-04-06T02:10:20.099Z,1016.86
2018-04-06T02:11:29.538Z,1016.81
2018-04-06T02:12:39.496Z,1016.85
2018-04-06T02:13:49.195Z,1016.84
2018-04-06T02:14:59.307Z,1016.81
2018-04-06T02:16:09.314Z,1016.89
2018-04-06T02:17:19.303Z,1016.92
2018-04-06T02:18:29.257Z,1016.88
2018-04-06T02:19:39.221Z,1016.86
2018-04-06T02:20:49.190Z,1016.89
2018-04-06T02:21:59.150Z,1016.85
2018-04-06T02:23:09.102Z,1016.87
2018-04-06T02:24:19.065Z,1016.95
2018-04-06T02:25:29.122Z,1017.04
2018-04-06T02:26:39.078Z,1016.98
2018-04-06T02:27:49.049Z,1017
2018-04-06T02:28:58.743Z,1017.01
2018-04-06T02:30:08.195Z,1016.98
2018-04-06T02:31:18.169Z,1016.99
2018-04-06T02:32:28.136Z,1017.05
2018-04-06T02:33:38.114Z,1017.05
2018-04-06T02:34:48.084Z,1016.99
2018-04-06T02:35:58.035Z,1017.06
2018-04-06T02:37:07.500Z,1017.04
2018-04-06T02:38:17.466Z,1017.06
2018-04-06T02:39:27.438Z,1017.03
2018-04-06T02:40:37.414Z,1017.05
2018-04-06T02:41:47.381Z,1017.02
2018-04-06T02:42:57.356Z,1017.15
2018-04-06T02:44:07.317Z,1017.09
2018-04-06T02:45:17.306Z,1017.1
2018-04-06T02:46:27.304Z,1017.16
2018-04-06T02:47:37.301Z,1017.2
2018-04-06T02:48:47.301Z,1017.19
2018-04-06T02:49:57.263Z,1017.27
2018-04-06T02:51:06.978Z,1017.26
2018-04-06T02:52:16.968Z,1017.28
2018-04-06T02:53:26.424Z,1017.28
2018-04-06T02:54:36.400Z,1017.37
2018-04-06T02:55:46.605Z,1017.35
2018-04-06T02:56:56.321Z,1017.29
2018-04-06T02:58:06.291Z,1017.24
2018-04-06T02:59:15.995Z,1017.28
2018-04-06T03:00:26.002Z,1017.25
2018-04-06T03:01:35.724Z,1017.27
2018-04-06T03:02:45.682Z,1017.35
2018-04-06T03:03:55.647Z,1017.34
2018-04-06T03:05:05.606Z,1017.36
2018-04-06T03:06:15.583Z,1017.32
2018-04-06T03:07:25.531Z,1017.31
2018-04-06T03:08:35.241Z,1017.31
2018-04-06T03:09:45.220Z,1017.32
2018-04-06T03:10:54.929Z,1017.37
2018-04-06T03:12:04.681Z,1017.38
2018-04-06T03:13:14.667Z,1017.39
2018-04-06T03:14:24.628Z,1017.39
2018-04-06T03:15:34.326Z,1017.44
2018-04-06T03:16:44.277Z,1017.42
2018-04-06T03:17:54.225Z,1017.46
2018-04-06T03:19:04.183Z,1017.43
2018-04-06T03:20:13.877Z,1017.47
2018-04-06T03:21:23.842Z,1017.53
2018-04-06T03:22:33.528Z,1017.5
2018-04-06T03:23:43.483Z,1017.46
2018-04-06T03:24:53.429Z,1017.48
2018-04-06T03:26:03.140Z,1017.52
2018-04-06T03:27:13.089Z,1017.58
2018-04-06T03:28:23.045Z,1017.59
2018-04-06T03:29:32.741Z,1017.55
2018-04-06T03:30:42.444Z,1017.56
2018-04-06T03:31:52.148Z,1017.66
2018-04-06T03:33:02.101Z,1017.61
2018-04-06T03:34:11.807Z,1017.59
2018-04-06T03:35:21.764Z,1017.63
2018-04-06T03:36:31.706Z,1017.65
2018-04-06T03:37:41.427Z,1017.62
2018-04-06T03:38:51.387Z,1017.61
2018-04-06T03:40:01.091Z,1017.67
2018-04-06T03:41:11.048Z,1017.62
2018-04-06T03:42:21.006Z,1017.69
2018-04-06T03:43:30.704Z,1017.65
2018-04-06T03:44:40.402Z,1017.64
2018-04-06T03:45:50.092Z,1017.69
2018-04-06T03:46:59.824Z,1017.6
2018-04-06T03:48:09.264Z,1017.61
2018-04-06T03:49:19.225Z,1017.68
2018-04-06T03:50:28.656Z,1017.66
2018-04-06T03:51:38.374Z,1017.7
2018-04-06T03:52:48.337Z,1017.74
2018-04-06T03:53:58.304Z,1017.66
2018-04-06T03:55:08.006Z,1017.67
2018-04-06T03:56:17.458Z,1017.73
2018-04-06T03:57:27.146Z,1017.74
2018-04-06T03:58:37.123Z,1017.76
2018-04-06T03:59:46.830Z,1017.75
2018-04-06T04:00:56.263Z,1017.73
2018-04-06T04:02:05.443Z,1017.88
2018-04-06T04:03:15.402Z,1017.82
2018-04-06T04:04:25.116Z,1017.81
2018-04-06T04:05:34.301Z,1017.77
2018-04-06T04:06:44.263Z,1017.77
2018-04-06T04:07:54.228Z,1017.74
2018-04-06T04:09:03.929Z,1017.84
2018-04-06T04:10:13.889Z,1017.8
2018-04-06T04:11:23.605Z,1017.8
2018-04-06T04:12:33.299Z,1017.8
2018-04-06T04:13:42.742Z,1017.75
2018-04-06T04:14:52.440Z,1017.81
2018-04-06T04:16:02.156Z,1017.82
2018-04-06T04:17:11.846Z,1017.81
2018-04-06T04:18:21.587Z,1017.8
2018-04-06T04:19:31.376Z,1017.81
2018-04-06T04:20:41.334Z,1017.79
2018-04-06T04:21:51.047Z,1017.76
2018-04-06T04:23:01.009Z,1017.77
2018-04-06T04:24:10.969Z,1017.82
2018-04-06T04:25:20.947Z,1017.88
2018-04-06T04:26:30.907Z,1017.92
2018-04-06T04:27:40.602Z,1017.82
2018-04-06T04:28:50.310Z,1017.79
2018-04-06T04:30:00.009Z,1017.88
2018-04-06T04:31:09.972Z,1017.88
2018-04-06T04:32:19.953Z,1017.9
2018-04-06T04:33:29.927Z,1017.9
2018-04-06T04:34:39.888Z,1017.9
2018-04-06T04:35:49.838Z,1017.93
2018-04-06T04:36:59.796Z,1017.97
2018-04-06T04:38:09.503Z,1017.89
2018-04-06T04:39:19.207Z,1017.92
2018-04-06T04:40:29.163Z,1017.89
2018-04-06T04:41:39.136Z,1017.99
2018-04-06T04:42:48.595Z,1017.9
2018-04-06T04:43:58.549Z,1017.97
2018-04-06T04:45:08.250Z,1017.97
2018-04-06T04:46:17.953Z,1017.93
2018-04-06T04:47:27.657Z,1017.97
2018-04-06T04:48:37.101Z,1017.98
2018-04-06T04:49:46.805Z,1018
2018-04-06T04:50:56.244Z,1018.05
2018-04-06T04:52:05.939Z,1018.05
2018-04-06T04:53:15.432Z,1018.03
2018-04-06T04:54:24.410Z,1018.03
2018-04-06T04:55:34.116Z,1018
2018-04-06T04:56:43.296Z,1018.06
2018-04-06T04:57:53.260Z,1018.02
2018-04-06T04:59:03.247Z,1018.09
2018-04-06T05:00:13.229Z,1018.09
2018-04-06T05:01:23.195Z,1018.07
2018-04-06T05:02:33.158Z,1018.06
2018-04-06T05:03:42.915Z,1018.09
2018-04-06T05:04:52.621Z,1018.17
2018-04-06T05:06:02.660Z,1018.18
2018-04-06T05:07:12.364Z,1018.12
2018-04-06T05:08:22.330Z,1018.18
2018-04-06T05:09:32.298Z,1018.21
2018-04-06T05:10:42.260Z,1018.28
2018-04-06T05:11:51.712Z,1018.3
2018-04-06T05:13:01.665Z,1018.31
2018-04-06T05:14:11.373Z,1018.28
2018-04-06T05:15:21.066Z,1018.33
2018-04-06T05:16:31.036Z,1018.31
2018-04-06T05:17:40.233Z,1018.35
2018-04-06T05:18:50.232Z,1018.36
2018-04-06T05:20:00.191Z,1018.35
2018-04-06T05:21:10.146Z,1018.34
2018-04-06T05:22:19.840Z,1018.36
2018-04-06T05:23:29.532Z,1018.42
2018-04-06T05:24:39.563Z,1018.42
2018-04-06T05:25:49.533Z,1018.4
2018-04-06T05:26:59.507Z,1018.46
2018-04-06T05:28:09.209Z,1018.45
2018-04-06T05:29:18.656Z,1018.47
2018-04-06T05:30:28.105Z,1018.47
2018-04-06T05:31:37.801Z,1018.47
2018-04-06T05:32:47.499Z,1018.46
2018-04-06T05:33:56.937Z,1018.45
2018-04-06T05:35:06.377Z,1018.51
2018-04-06T05:36:16.351Z,1018.46
2018-04-06T05:37:26.324Z,1018.49
2018-04-06T05:38:36.462Z,1018.53
2018-04-06T05:39:46.534Z,1018.58
2018-04-06T05:40:56.500Z,1018.68
2018-04-06T05:42:06.675Z,1018.65
2018-04-06T05:43:16.632Z,1018.57
2018-04-06T05:44:26.586Z,1018.69
2018-04-06T05:45:36.542Z,1018.7
2018-04-06T05:46:46.503Z,1018.74
2018-04-06T05:47:56.478Z,1018.78
2018-04-06T05:49:06.443Z,1018.74
2018-04-06T05:50:16.438Z,1018.77
2018-04-06T05:51:26.396Z,1018.79
2018-04-06T05:52:36.342Z,1018.82
2018-04-06T05:53:46.049Z,1018.77
2018-04-06T05:54:56.018Z,1018.8
2018-04-06T05:56:05.994Z,1018.8
2018-04-06T05:57:15.698Z,1018.83
2018-04-06T05:58:25.138Z,1018.84
2018-04-06T05:59:35.099Z,1018.84
2018-04-06T06:00:45.069Z,1018.88
2018-04-06T06:01:54.505Z,1018.92
2018-04-06T06:03:04.207Z,1018.95
2018-04-06T06:04:13.916Z,1018.97
2018-04-06T06:05:23.616Z,1018.97
2018-04-06T06:06:33.579Z,1018.97
2018-04-06T06:07:43.270Z,1019.04
2018-04-06T06:08:52.976Z,1019.06
2018-04-06T06:10:02.932Z,1019.1
2018-04-06T06:11:12.643Z,1019.12
2018-04-06T06:12:22.625Z,1019.09
2018-04-06T06:13:31.821Z,1019.13
2018-04-06T06:14:41.531Z,1019.15
2018-04-06T06:15:51.229Z,1019.2
2018-04-06T06:17:00.409Z,1019.12
2018-04-06T06:18:10.382Z,1019.19
2018-04-06T06:19:19.821Z,1019.17
2018-04-06T06:20:29.269Z,1019.25
2018-04-06T06:21:38.740Z,1019.24
2018-04-06T06:22:48.730Z,1019.22
2018-04-06T06:23:58.427Z,1019.19
2018-04-06T06:25:07.601Z,1019.21
2018-04-06T06:26:17.565Z,1019.25
2018-04-06T06:27:27.001Z,1019.29
2018-04-06T06:28:36.991Z,1019.31
2018-04-06T06:29:46.442Z,1019.28
2018-04-06T06:30:56.412Z,1019.38
2018-04-06T06:32:06.110Z,1019.42
2018-04-06T06:33:15.577Z,1019.43
2018-04-06T06:34:25.295Z,1019.42
2018-04-06T06:35:35.290Z,1019.47
2018-04-06T06:36:45.262Z,1019.43
2018-04-06T06:37:55.374Z,1019.39
2018-04-06T06:39:05.341Z,1019.46
2018-04-06T06:40:15.296Z,1019.44
2018-04-06T06:41:25.013Z,1019.45
2018-04-06T06:42:34.717Z,1019.49
2018-04-06T06:43:43.903Z,1019.52
2018-04-06T06:44:53.357Z,1019.52
2018-04-06T06:46:03.066Z,1019.47
2018-04-06T06:47:13.037Z,1019.52
2018-04-06T06:48:22.488Z,1019.54
2018-04-06T06:49:32.456Z,1019.52
2018-04-06T06:50:42.405Z,1019.57
2018-04-06T06:51:52.370Z,1019.53
2018-04-06T06:53:02.079Z,1019.55
2018-04-06T06:54:11.524Z,1019.6
2018-04-06T06:55:21.348Z,1019.62
2018-04-06T06:56:31.307Z,1019.59
2018-04-06T06:57:41.011Z,1019.56
2018-04-06T06:58:50.715Z,1019.57
2018-04-06T07:00:00.417Z,1019.52
2018-04-06T07:01:10.132Z,1019.59
2018-04-06T07:02:20.107Z,1019.58
2018-04-06T07:03:30.075Z,1019.48
2018-04-06T07:04:40.032Z,1019.51
2018-04-06T07:05:49.223Z,1019.45
2018-04-06T07:06:59.188Z,1019.59
2018-04-06T07:08:09.153Z,1019.53
2018-04-06T07:09:19.127Z,1019.53
2018-04-06T07:10:28.836Z,1019.53
2018-04-06T07:11:38.793Z,1019.54
2018-04-06T07:12:48.752Z,1019.54
2018-04-06T07:13:58.445Z,1019.63
2018-04-06T07:15:08.059Z,1019.56
2018-04-06T07:16:17.762Z,1019.55
2018-04-06T07:17:27.478Z,1019.48
2018-04-06T07:18:37.448Z,1019.57
2018-04-06T07:19:47.155Z,1019.63
2018-04-06T07:20:57.107Z,1019.71
2018-04-06T07:22:07.086Z,1019.76
2018-04-06T07:23:16.525Z,1019.63
2018-04-06T07:24:26.234Z,1019.66
2018-04-06T07:25:35.953Z,1019.67
2018-04-06T07:26:45.926Z,1019.68
2018-04-06T07:27:55.909Z,1019.66
2018-04-06T07:29:05.888Z,1019.63
2018-04-06T07:30:15.861Z,1019.69
2018-04-06T07:31:25.827Z,1019.71
2018-04-06T07:32:35.524Z,1019.63
2018-04-06T07:33:45.484Z,1019.68
2018-04-06T07:34:55.450Z,1019.63
2018-04-06T07:36:05.409Z,1019.57
2018-04-06T07:37:15.382Z,1019.65
2018-04-06T07:38:24.831Z,1019.6
2018-04-06T07:39:34.830Z,1019.65
2018-04-06T07:40:44.809Z,1019.66
2018-04-06T07:41:54.258Z,1019.65
2018-04-06T07:43:03.975Z,1019.67
2018-04-06T07:44:13.759Z,1019.68
2018-04-06T07:45:23.738Z,1019.68
2018-04-06T07:46:33.199Z,1019.7
2018-04-06T07:47:42.639Z,1019.73
2018-04-06T07:48:52.342Z,1019.67
2018-04-06T07:50:02.042Z,1019.61
2018-04-06T07:51:12.015Z,1019.8
2018-04-06T07:52:21.985Z,1019.75
2018-04-06T07:53:31.953Z,1019.81
2018-04-06T07:54:41.398Z,1019.76
2018-04-06T07:55:51.117Z,1019.71
2018-04-06T07:57:00.851Z,1019.72
2018-04-06T07:58:10.318Z,1019.71
2018-04-06T07:59:20.032Z,1019.82
2018-04-06T08:00:30.006Z,1019.8
2018-04-06T08:01:39.997Z,1019.85
2018-04-06T08:02:49.704Z,1019.75
2018-04-06T08:03:59.663Z,1019.74
2018-04-06T08:05:09.377Z,1019.76
2018-04-06T08:06:19.357Z,1019.84
2018-04-06T08:07:29.320Z,1019.8
2018-04-06T08:08:39.288Z,1019.78
2018-04-06T08:09:48.740Z,1019.77
2018-04-06T08:10:58.199Z,1019.81
2018-04-06T08:12:07.906Z,1019.79
2018-04-06T08:13:17.626Z,1019.79
2018-04-06T08:14:27.475Z,1019.87
2018-04-06T08:15:37.181Z,1019.88
2018-04-06T08:16:47.167Z,1019.78
2018-04-06T08:17:56.859Z,1019.74
2018-04-06T08:19:06.597Z,1019.77
2018-04-06T08:20:16.562Z,1019.75
2018-04-06T08:21:26.009Z,1019.84
2018-04-06T08:22:35.188Z,1019.85
2018-04-06T08:23:44.886Z,1019.82
2018-04-06T08:24:54.871Z,1019.82
2018-04-06T08:26:04.595Z,1019.86
2018-04-06T08:27:14.608Z,1019.84
2018-04-06T08:28:24.310Z,1019.81
2018-04-06T08:29:34.271Z,1019.82
2018-04-06T08:30:43.989Z,1019.82
2018-04-06T08:31:53.437Z,1019.82
2018-04-06T08:33:03.152Z,1019.86
2018-04-06T08:34:13.139Z,1019.92
2018-04-06T08:35:22.866Z,1019.92
2018-04-06T08:36:32.584Z,1020.03
2018-04-06T08:37:42.605Z,1019.99
2018-04-06T08:38:52.047Z,1019.98
2018-04-06T08:40:02.034Z,1020.04
2018-04-06T08:41:11.738Z,1020.11
2018-04-06T08:42:21.468Z,1020.03
2018-04-06T08:43:31.275Z,1020.05
2018-04-06T08:44:41.245Z,1020.05
2018-04-06T08:45:50.958Z,1020.14
2018-04-06T08:47:00.684Z,1020.06
2018-04-06T08:48:10.502Z,1020.06
2018-04-06T08:49:20.241Z,1020.05
2018-04-06T08:50:30.272Z,1020.1
2018-04-06T08:51:39.983Z,1020.05
2018-04-06T08:52:49.957Z,1020.1
2018-04-06T08:53:59.408Z,1020.02
2018-04-06T08:55:09.121Z,1020.04
2018-04-06T08:56:19.179Z,1020.02
2018-04-06T08:57:29.156Z,1020.08
2018-04-06T08:58:38.872Z,1020.06
2018-04-06T08:59:48.855Z,1020.01
2018-04-06T09:00:58.574Z,1020.02
2018-04-06T09:02:08.621Z,1020.04
2018-04-06T09:03:18.599Z,1020.06
2018-04-06T09:04:28.580Z,1020.11
2018-04-06T09:05:38.346Z,1020.08
2018-04-06T09:06:48.325Z,1020.07
2018-04-06T09:07:58.305Z,1020.07
2018-04-06T09:09:08.283Z,1020.04
2018-04-06T09:10:18.281Z,1020.02
2018-04-06T09:11:27.741Z,1020.04
2018-04-06T09:12:37.759Z,1020.04
2018-04-06T09:13:47.752Z,1020.04
2018-04-06T09:14:57.771Z,1020.13
2018-04-06T09:16:07.789Z,1020.16
2018-04-06T09:17:17.772Z,1020.09
2018-04-06T09:18:27.487Z,1020.08
2018-04-06T09:19:37.223Z,1020.14
2018-04-06T09:20:47.193Z,1020.1
2018-04-06T09:21:56.417Z,1020.19
2018-04-06T09:23:06.138Z,1020.12
2018-04-06T09:24:16.102Z,1020.09
2018-04-06T09:25:26.084Z,1020.12
2018-04-06T09:26:36.062Z,1020.12
2018-04-06T09:27:46.040Z,1020.07
2018-04-06T09:28:55.760Z,1020.08
2018-04-06T09:30:05.223Z,1020.08
2018-04-06T09:31:15.209Z,1020.09
2018-04-06T09:32:24.964Z,1020.07
2018-04-06T09:33:34.967Z,1020.1
2018-04-06T09:34:44.439Z,1020.03
2018-04-06T09:35:54.410Z,1019.98
2018-04-06T09:37:03.863Z,1019.99
2018-04-06T09:38:13.839Z,1019.98
2018-04-06T09:39:23.825Z,1020
2018-04-06T09:40:33.805Z,1019.95
2018-04-06T09:41:43.564Z,1019.94
2018-04-06T09:42:53.269Z,1019.95
2018-04-06T09:44:03.242Z,1019.98
2018-04-06T09:45:12.967Z,1019.98
2018-04-06T09:46:22.660Z,1019.94
2018-04-06T09:47:32.376Z,1019.98
2018-04-06T09:48:41.829Z,1019.99
2018-04-06T09:49:51.030Z,1019.96
2018-04-06T09:51:01.002Z,1019.98
2018-04-06T09:52:10.969Z,1019.96
2018-04-06T09:53:20.706Z,1019.96
2018-04-06T09:54:30.417Z,1019.94
2018-04-06T09:55:40.137Z,1019.93
2018-04-06T09:56:49.858Z,1019.9
2018-04-06T09:57:59.322Z,1019.87
2018-04-06T09:59:08.796Z,1019.84
2018-04-06T10:00:18.523Z,1019.83
2018-04-06T10:01:28.509Z,1019.83
2018-04-06T10:02:38.225Z,1019.85
2018-04-06T10:03:47.949Z,1019.83
2018-04-06T10:04:57.920Z,1019.86
2018-04-06T10:06:07.397Z,1019.86
2018-04-06T10:07:16.885Z,1019.84
2018-04-06T10:08:26.861Z,1019.88
2018-04-06T10:09:36.836Z,1019.81
2018-04-06T10:10:46.834Z,1019.84
2018-04-06T10:11:57.054Z,1019.81
2018-04-06T10:13:07.081Z,1019.85
2018-04-06T10:14:17.084Z,1019.84
2018-04-06T10:15:27.080Z,1019.82
2018-04-06T10:16:37.058Z,1019.8
2018-04-06T10:17:46.781Z,1019.74
2018-04-06T10:18:56.781Z,1019.77
2018-04-06T10:20:06.527Z,1019.9
2018-04-06T10:21:16.503Z,1019.82
2018-04-06T10:22:27.701Z,1019.72
2018-04-06T10:23:43.953Z,1019.77
2018-04-06T10:24:53.684Z,1019.75
2018-04-06T10:26:03.686Z,1019.81
2018-04-06T10:27:13.653Z,1019.85
2018-04-06T10:28:23.728Z,1019.68
2018-04-06T10:29:33.733Z,1019.73
2018-04-06T10:30:43.714Z,1019.67
2018-04-06T10:31:53.447Z,1019.63
2018-04-06T10:33:03.431Z,1019.62
2018-04-06T10:34:13.419Z,1019.53
2018-04-06T10:35:23.394Z,1019.58
2018-04-06T10:36:33.373Z,1019.56
2018-04-06T10:37:43.082Z,1019.44
2018-04-06T10:38:53.056Z,1019.4
2018-04-06T10:40:02.767Z,1019.54
2018-04-06T10:41:12.498Z,1019.45
2018-04-06T10:42:22.228Z,1019.51
2018-04-06T10:43:32.204Z,1019.48
2018-04-06T10:44:41.941Z,1019.48
2018-04-06T10:45:51.653Z,1019.44
2018-04-06T10:47:01.632Z,1019.51
2018-04-06T10:48:11.604Z,1019.47
2018-04-06T10:49:21.313Z,1019.46
2018-04-06T10:50:30.777Z,1019.47
2018-04-06T10:51:40.764Z,1019.48
2018-04-06T10:52:50.504Z,1019.53
2018-04-06T10:54:00.489Z,1019.47
2018-04-06T10:55:10.208Z,1019.44
2018-04-06T10:56:20.190Z,1019.46
2018-04-06T10:57:29.903Z,1019.52
2018-04-06T10:58:39.437Z,1019.51
2018-04-06T10:59:49.180Z,1019.44
2018-04-06T11:00:59.178Z,1019.48
2018-04-06T11:02:08.636Z,1019.43
2018-04-06T11:03:18.626Z,1019.4
2018-04-06T11:04:28.347Z,1019.38
2018-04-06T11:05:37.824Z,1019.4
2018-04-06T11:06:47.802Z,1019.47
2018-04-06T11:07:57.520Z,1019.42
2018-04-06T11:09:07.241Z,1019.39
2018-04-06T11:10:16.698Z,1019.33
2018-04-06T11:11:26.151Z,1019.32
2018-04-06T11:12:35.608Z,1019.38
2018-04-06T11:13:45.378Z,1019.38
2018-04-06T11:14:55.345Z,1019.47
2018-04-06T11:16:05.339Z,1019.44
2018-04-06T11:17:15.218Z,1019.41
2018-04-06T11:18:24.957Z,1019.39
2018-04-06T11:19:34.674Z,1019.4
2018-04-06T11:20:44.411Z,1019.4
2018-04-06T11:21:54.382Z,1019.41
2018-04-06T11:23:04.097Z,1019.42
2018-04-06T11:24:13.959Z,1019.4
2018-04-06T11:25:23.946Z,1019.37
2018-04-06T11:26:33.672Z,1019.35
2018-04-06T11:27:43.661Z,1019.33
2018-04-06T11:28:53.376Z,1019.36
2018-04-06T11:30:02.838Z,1019.39
2018-04-06T11:31:12.870Z,1019.33
2018-04-06T11:32:22.603Z,1019.41
2018-04-06T11:33:32.691Z,1019.42
2018-04-06T11:34:42.430Z,1019.41
2018-04-06T11:35:52.422Z,1019.38
2018-04-06T11:37:02.137Z,1019.45
2018-04-06T11:38:11.351Z,1019.4
2018-04-06T11:39:20.812Z,1019.46
2018-04-06T11:40:30.535Z,1019.41
2018-04-06T11:41:40.511Z,1019.39
2018-04-06T11:42:50.248Z,1019.41
2018-04-06T11:43:59.964Z,1019.42
2018-04-06T11:45:09.531Z,1019.42
2018-04-06T11:46:18.994Z,1019.37
2018-04-06T11:47:28.709Z,1019.4
2018-04-06T11:48:38.427Z,1019.41
2018-04-06T11:49:48.399Z,1019.37
2018-04-06T11:50:58.376Z,1019.28
2018-04-06T11:52:07.834Z,1019.26
2018-04-06T11:53:17.023Z,1019.32
2018-04-06T11:54:26.476Z,1019.34
2018-04-06T11:55:35.935Z,1019.29
2018-04-06T11:56:45.390Z,1019.32
2018-04-06T11:57:55.106Z,1019.29
2018-04-06T11:59:05.081Z,1019.35
2018-04-06T12:00:15.053Z,1019.31
2018-04-06T12:01:24.530Z,1019.32
2018-04-06T12:02:33.995Z,1019.31
2018-04-06T12:03:43.444Z,1019.32
2018-04-06T12:04:53.424Z,1019.28
2018-04-06T12:06:03.401Z,1019.44
2018-04-06T12:07:13.131Z,1019.29
2018-04-06T12:08:22.598Z,1019.35
2018-04-06T12:09:32.320Z,1019.35
2018-04-06T12:10:42.314Z,1019.36
2018-04-06T12:11:52.036Z,1019.36
2018-04-06T12:13:02.033Z,1019.39
2018-04-06T12:14:12.162Z,1019.29
2018-04-06T12:15:22.137Z,1019.34
2018-04-06T12:16:31.876Z,1019.32
2018-04-06T12:17:41.625Z,1019.39
2018-04-06T12:18:51.362Z,1019.34
2018-04-06T12:20:00.852Z,1019.3
2018-04-06T12:21:10.578Z,1019.26
2018-04-06T12:22:20.063Z,1019.29
2018-04-06T12:23:30.277Z,1019.33
2018-04-06T12:24:40.008Z,1019.3
2018-04-06T12:25:49.990Z,1019.24
2018-04-06T12:26:59.710Z,1019.29
2018-04-06T12:28:09.634Z,1019.35
2018-04-06T12:29:19.348Z,1019.3
2018-04-06T12:30:29.330Z,1019.28
2018-04-06T12:31:39.043Z,1019.25
2018-04-06T12:32:49.025Z,1019.28
2018-04-06T12:33:58.753Z,1019.36
2018-04-06T12:35:07.961Z,1019.26
2018-04-06T12:36:17.413Z,1019.22
2018-04-06T12:37:26.622Z,1019.28
2018-04-06T12:38:36.455Z,1019.26
2018-04-06T12:39:46.426Z,1019.29
2018-04-06T12:40:56.149Z,1019.23
2018-04-06T12:42:06.132Z,1019.19
2018-04-06T12:43:15.874Z,1019.2
2018-04-06T12:44:25.626Z,1019.16
2018-04-06T12:45:35.079Z,1019.15
2018-04-06T12:46:44.798Z,1019.15
2018-04-06T12:47:54.016Z,1019.19
2018-04-06T12:49:03.748Z,1019.15
2018-04-06T12:50:13.724Z,1019.14
2018-04-06T12:51:23.711Z,1019.11
2018-04-06T12:52:33.426Z,1019.07
2018-04-06T12:53:43.138Z,1019.13
2018-04-06T12:54:52.345Z,1019.13
2018-04-06T12:56:02.337Z,1019.14
2018-04-06T12:57:12.061Z,1019.17
2018-04-06T12:58:21.781Z,1019.22
2018-04-06T12:59:31.485Z,1019.16
2018-04-06T13:00:41.465Z,1019.2
2018-04-06T13:01:51.175Z,1019.19
2018-04-06T13:03:00.915Z,1019.15
2018-04-06T13:04:10.980Z,1019.16
2018-04-06T13:05:20.699Z,1019.07
2018-04-06T13:06:30.407Z,1019.08
2018-04-06T13:07:40.145Z,1019.07
2018-04-06T13:08:50.114Z,1019.05
2018-04-06T13:09:59.849Z,1018.97
2018-04-06T13:11:09.650Z,1018.98
2018-04-06T13:12:19.622Z,1019.04
2018-04-06T13:13:29.348Z,1019.05
2018-04-06T13:14:39.062Z,1019.07
2018-04-06T13:15:48.785Z,1019.07
2018-04-06T13:16:58.523Z,1019.1
2018-04-06T13:18:08.522Z,1019.06
2018-04-06T13:19:18.502Z,1019.07
2018-04-06T13:20:28.494Z,1019.03
2018-04-06T13:21:38.202Z,1019
2018-04-06T13:22:48.175Z,1018.96
2018-04-06T13:23:57.624Z,1019.01
2018-04-06T13:25:06.818Z,1018.95
2018-04-06T13:26:16.815Z,1018.99
2018-04-06T13:27:26.806Z,1018.97
2018-04-06T13:28:36.533Z,1018.96
2018-04-06T13:29:46.264Z,1018.99
2018-04-06T13:30:56.268Z,1018.96
2018-04-06T13:32:06.306Z,1019.12
2018-04-06T13:33:16.025Z,1018.97
2018-04-06T13:34:26.014Z,1018.96
2018-04-06T13:35:35.727Z,1018.97
2018-04-06T13:36:45.732Z,1018.96
2018-04-06T13:37:55.725Z,1018.93
2018-04-06T13:39:05.705Z,1018.95
2018-04-06T13:40:15.710Z,1018.91
2018-04-06T13:41:25.696Z,1018.91
2018-04-06T13:42:35.673Z,1018.88
2018-04-06T13:43:44.612Z,1018.89
2018-04-06T13:44:54.590Z,1018.88
2018-04-06T13:46:04.313Z,1018.85
2018-04-06T13:47:14.290Z,1018.85
2018-04-06T13:48:23.228Z,1018.83
2018-04-06T13:49:33.205Z,1018.8
2018-04-06T13:50:42.933Z,1018.81
2018-04-06T13:51:52.644Z,1018.76
2018-04-06T13:53:02.623Z,1018.78
2018-04-06T13:54:12.606Z,1018.8
2018-04-06T13:55:22.592Z,1018.84
2018-04-06T13:56:32.061Z,1018.78
2018-04-06T13:57:42.059Z,1018.85
2018-04-06T13:58:51.775Z,1018.84
2018-04-06T14:00:01.549Z,1018.82
2018-04-06T14:01:11.347Z,1018.8
2018-04-06T14:02:21.561Z,1018.79
2018-04-06T14:03:31.538Z,1018.72
2018-04-06T14:04:41.512Z,1018.71
2018-04-06T14:05:51.497Z,1018.66
2018-04-06T14:07:01.493Z,1018.72